createdAt,value
2023-02-11T00:01:45.781Z,28.24
2023-02-11T00:04:17.035Z,28.22
2023-02-11T00:06:47.485Z,28.22
2023-02-11T00:09:20.054Z,28.25
2023-02-11T00:11:50.876Z,28.30
2023-02-11T00:14:21.897Z,28.40
2023-02-11T00:16:52.542Z,28.51
2023-02-11T00:19:23.405Z,28.62
2023-02-11T00:21:54.002Z,28.72
2023-02-11T00:24:24.885Z,28.78
2023-02-11T00:26:55.188Z,28.88
2023-02-11T00:29:26.638Z,28.91
2023-02-11T00:31:59.881Z,28.94
2023-02-11T00:34:30.364Z,28.99
2023-02-11T00:37:09.905Z,29.06
2023-02-11T00:39:40.512Z,29.08
2023-02-11T00:42:16.494Z,29.15
2023-02-11T00:44:48.394Z,29.23
2023-02-11T00:47:20.327Z,29.26
2023-02-11T00:49:50.692Z,29.32
2023-02-11T00:52:22.580Z,29.38
2023-02-11T00:54:53.395Z,29.42
2023-02-11T00:57:27.520Z,29.42
2023-02-11T01:00:00.751Z,29.53
2023-02-11T01:02:33.989Z,29.52
2023-02-11T01:05:06.640Z,29.58
2023-02-11T01:07:37.343Z,29.60
2023-02-11T01:10:08.222Z,29.64
2023-02-11T01:12:39.126Z,29.74
2023-02-11T01:15:11.298Z,29.74
2023-02-11T01:17:44.412Z,29.83
2023-02-11T01:20:18.813Z,29.86
2023-02-11T01:22:49.281Z,29.95
2023-02-11T01:25:20.125Z,29.98
2023-02-11T01:27:52.863Z,30.00
2023-02-11T01:30:23.416Z,30.04
2023-02-11T01:32:54.517Z,30.05
2023-02-11T01:35:25.807Z,30.09
2023-02-11T01:37:56.724Z,30.12
2023-02-11T01:40:28.247Z,30.16
2023-02-11T01:42:59.566Z,30.19
2023-02-11T01:45:51.334Z,30.24
2023-02-11T01:48:33.437Z,30.26
2023-02-11T01:51:29.259Z,30.39
2023-02-11T01:54:20.131Z,30.43
2023-02-11T01:57:12.310Z,30.45
2023-02-11T02:00:06.810Z,30.57
2023-02-11T02:02:58.729Z,30.60
2023-02-11T02:05:32.345Z,30.70
2023-02-11T02:08:18.846Z,30.76
2023-02-11T02:10:55.638Z,30.77
2023-02-11T02:13:31.054Z,30.83
2023-02-11T02:16:09.675Z,30.87
2023-02-11T02:18:55.734Z,30.97
2023-02-11T02:22:17.082Z,31.07
2023-02-11T02:24:57.636Z,31.01
2023-02-11T02:27:31.176Z,31.15
2023-02-11T02:30:26.153Z,31.12
2023-02-11T02:33:23.603Z,31.25
2023-02-11T02:36:11.243Z,31.23
2023-02-11T02:38:53.019Z,31.20
2023-02-11T02:41:32.241Z,31.18
2023-02-11T02:44:03.775Z,31.14
2023-02-11T02:46:43.451Z,31.12
2023-02-11T02:49:15.470Z,31.03
2023-02-11T02:52:07.700Z,31.03
2023-02-11T02:54:46.311Z,31.06
2023-02-11T02:57:27.385Z,31.07
2023-02-11T03:00:18.535Z,31.08
2023-02-11T03:03:09.789Z,31.12
2023-02-11T03:05:51.704Z,31.13
2023-02-11T03:08:46.014Z,31.15
2023-02-11T03:11:20.284Z,31.11
2023-02-11T03:13:52.168Z,31.10
2023-02-11T03:16:27.807Z,31.06
2023-02-11T03:19:02.274Z,31.04
2023-02-11T03:21:35.407Z,31.06
2023-02-11T03:24:10.404Z,31.12
2023-02-11T03:27:01.242Z,31.22
2023-02-11T03:29:38.275Z,31.29
2023-02-11T03:32:29.231Z,31.41
2023-02-11T03:35:05.632Z,31.45
2023-02-11T03:38:02.108Z,31.51
2023-02-11T03:40:41.914Z,31.54
2023-02-11T03:43:20.336Z,31.65
2023-02-11T03:45:53.014Z,31.71
2023-02-11T03:48:40.605Z,31.73
2023-02-11T03:51:15.407Z,31.69
2023-02-11T03:53:48.509Z,31.69
2023-02-11T03:56:23.749Z,31.74
2023-02-11T03:58:55.550Z,31.75
2023-02-11T04:01:26.534Z,31.71
2023-02-11T04:03:57.768Z,31.79
2023-02-11T04:06:39.151Z,31.86
2023-02-11T04:09:09.791Z,31.89
2023-02-11T04:11:42.847Z,31.87
2023-02-11T04:14:14.643Z,31.86
2023-02-11T04:16:45.839Z,31.99
2023-02-11T04:19:16.589Z,31.99
2023-02-11T04:21:53.479Z,31.99
2023-02-11T04:24:24.630Z,32.03
2023-02-11T04:26:56.397Z,32.14
2023-02-11T04:29:27.908Z,32.22
2023-02-11T04:31:58.524Z,32.27
2023-02-11T04:34:29.769Z,32.35
2023-02-11T04:37:00.938Z,32.45
2023-02-11T04:39:31.727Z,32.47
2023-02-11T04:42:02.993Z,32.52
2023-02-11T04:44:34.281Z,32.63
2023-02-11T04:47:04.560Z,32.72
2023-02-11T04:49:35.104Z,32.79
2023-02-11T04:52:05.583Z,32.86
2023-02-11T04:54:36.859Z,32.82
2023-02-11T04:57:08.371Z,32.92
2023-02-11T04:59:39.331Z,32.90
2023-02-11T05:02:12.617Z,32.83
2023-02-11T05:04:43.628Z,32.82
2023-02-11T05:07:23.196Z,32.75
2023-02-11T05:09:54.109Z,32.69
2023-02-11T05:12:25.060Z,32.61
2023-02-11T05:14:56.416Z,32.60
2023-02-11T05:17:27.923Z,32.54
2023-02-11T05:19:59.222Z,32.53
2023-02-11T05:22:30.151Z,32.52
2023-02-11T05:25:01.173Z,32.48
2023-02-11T05:27:31.853Z,32.42
2023-02-11T05:30:02.897Z,32.37
2023-02-11T05:32:34.041Z,32.36
2023-02-11T05:35:05.146Z,32.35
2023-02-11T05:37:36.717Z,32.32
2023-02-11T05:40:07.898Z,32.33
2023-02-11T05:42:38.821Z,32.30
2023-02-11T05:45:11.505Z,32.30
2023-02-11T05:47:42.317Z,32.27
2023-02-11T05:50:13.560Z,32.21
2023-02-11T05:52:44.953Z,32.17
2023-02-11T05:55:15.706Z,32.18
2023-02-11T05:57:46.617Z,32.14
2023-02-11T06:00:17.809Z,32.15
2023-02-11T06:02:48.936Z,32.11
2023-02-11T06:05:21.070Z,32.07
2023-02-11T06:07:51.796Z,32.06
2023-02-11T06:10:22.305Z,32.08
2023-02-11T06:12:52.873Z,32.02
2023-02-11T06:15:23.946Z,31.98
2023-02-11T06:17:54.803Z,31.99
2023-02-11T06:20:25.767Z,31.96
2023-02-11T06:22:59.327Z,31.98
2023-02-11T06:25:30.309Z,31.96
2023-02-11T06:28:00.992Z,31.93
2023-02-11T06:30:32.288Z,31.92
2023-02-11T06:33:03.841Z,31.89
2023-02-11T06:35:36.351Z,31.86
2023-02-11T06:38:07.437Z,31.89
2023-02-11T06:40:38.056Z,31.87
2023-02-11T06:43:17.850Z,31.83
2023-02-11T06:45:55.434Z,31.78
2023-02-11T06:48:28.980Z,31.82
2023-02-11T06:51:04.740Z,31.83
2023-02-11T06:53:40.334Z,31.81
2023-02-11T06:56:17.072Z,31.81
2023-02-11T06:58:48.201Z,31.80
2023-02-11T07:01:18.826Z,31.81
2023-02-11T07:03:49.600Z,31.81
2023-02-11T07:06:25.766Z,31.80
2023-02-11T07:08:57.292Z,31.78
2023-02-11T07:11:32.034Z,31.80
2023-02-11T07:14:09.730Z,31.79
2023-02-11T07:16:40.665Z,31.81
2023-02-11T07:19:11.111Z,31.81
2023-02-11T07:21:41.427Z,31.84
2023-02-11T07:24:13.152Z,31.92
2023-02-11T07:26:45.671Z,31.95
2023-02-11T07:29:16.629Z,31.98
2023-02-11T07:31:47.414Z,31.98
2023-02-11T07:34:18.039Z,32.04
2023-02-11T07:36:50.136Z,32.09
2023-02-11T07:39:22.839Z,32.03
2023-02-11T07:41:53.584Z,32.08
2023-02-11T07:44:24.152Z,32.07
2023-02-11T07:46:57.420Z,32.08
2023-02-11T07:49:36.339Z,32.11
2023-02-11T07:52:09.611Z,32.14
2023-02-11T07:54:40.076Z,32.13
2023-02-11T07:57:10.738Z,32.16
2023-02-11T07:59:41.453Z,32.16
2023-02-11T08:02:12.262Z,32.22
2023-02-11T08:04:42.569Z,32.25
2023-02-11T08:07:17.102Z,32.25
2023-02-11T08:09:48.509Z,32.22
2023-02-11T08:12:19.520Z,32.18
2023-02-11T08:14:50.340Z,32.14
2023-02-11T08:17:20.704Z,32.09
2023-02-11T08:19:51.503Z,32.10
2023-02-11T08:22:21.875Z,32.12
2023-02-11T08:24:53.106Z,32.15
2023-02-11T08:27:23.811Z,32.17
2023-02-11T08:29:56.051Z,32.16
2023-02-11T08:32:26.840Z,32.12
2023-02-11T08:34:57.920Z,32.13
2023-02-11T08:37:34.146Z,32.11
2023-02-11T08:40:04.710Z,32.09
2023-02-11T08:42:35.389Z,32.09
2023-02-11T08:45:06.873Z,32.07
2023-02-11T08:47:38.270Z,32.04
2023-02-11T08:50:11.368Z,32.06
2023-02-11T08:52:41.724Z,32.04
2023-02-11T08:55:13.122Z,32.04
2023-02-11T08:57:43.601Z,32.01
2023-02-11T09:00:25.073Z,32.00
2023-02-11T09:02:56.408Z,31.99
2023-02-11T09:05:28.640Z,31.97
2023-02-11T09:08:01.937Z,31.95
2023-02-11T09:10:32.490Z,31.90
2023-02-11T09:13:03.405Z,31.90
2023-02-11T09:15:34.431Z,31.86
2023-02-11T09:18:06.458Z,31.83
2023-02-11T09:20:36.999Z,31.85
2023-02-11T09:23:07.961Z,31.83
2023-02-11T09:25:42.101Z,31.84
2023-02-11T09:28:13.417Z,31.88
2023-02-11T09:30:44.482Z,31.88
2023-02-11T09:33:18.261Z,31.86
2023-02-11T09:35:48.677Z,31.84
2023-02-11T09:38:20.323Z,31.86
2023-02-11T09:40:50.848Z,31.83
2023-02-11T09:43:34.817Z,31.76
2023-02-11T09:46:15.124Z,31.76
2023-02-11T09:48:48.403Z,31.74
2023-02-11T09:52:00.422Z,31.78
2023-02-11T09:54:53.740Z,31.58
2023-02-11T09:57:29.354Z,31.66
2023-02-11T10:00:01.864Z,31.64
2023-02-11T10:02:59.607Z,31.65
2023-02-11T10:05:50.320Z,31.64
2023-02-11T10:08:24.275Z,31.60
2023-02-11T10:11:01.812Z,31.56
2023-02-11T10:13:48.530Z,31.56
2023-02-11T10:16:30.683Z,31.54
2023-02-11T10:19:12.244Z,31.53
2023-02-11T10:21:59.955Z,31.53
2023-02-11T10:24:31.656Z,31.49
2023-02-11T10:27:04.159Z,31.48
2023-02-11T10:29:42.036Z,31.47
2023-02-11T10:32:27.191Z,31.44
2023-02-11T10:35:05.596Z,31.43
2023-02-11T10:37:36.251Z,31.38
2023-02-11T10:40:14.448Z,31.31
2023-02-11T10:43:00.179Z,31.32
2023-02-11T10:45:51.729Z,31.33
2023-02-11T10:48:42.260Z,31.31
2023-02-11T10:51:25.932Z,31.27
2023-02-11T10:54:14.262Z,31.27
2023-02-11T10:56:54.352Z,31.24
2023-02-11T10:59:27.808Z,31.21
2023-02-11T11:02:04.030Z,31.20
2023-02-11T11:04:42.742Z,31.20
2023-02-11T11:07:29.214Z,31.13
2023-02-11T11:10:07.413Z,31.11
2023-02-11T11:12:47.257Z,31.13
2023-02-11T11:15:26.583Z,31.13
2023-02-11T11:18:22.312Z,31.16
2023-02-11T11:21:02.943Z,31.12
2023-02-11T11:23:34.610Z,31.11
2023-02-11T11:26:11.715Z,31.06
2023-02-11T11:28:58.859Z,31.10
2023-02-11T11:31:32.756Z,31.04
2023-02-11T11:34:31.331Z,31.05
2023-02-11T11:37:12.202Z,30.98
2023-02-11T11:39:43.167Z,30.95
2023-02-11T11:42:35.129Z,30.97
2023-02-11T11:45:26.931Z,30.99
2023-02-11T11:48:14.646Z,30.93
2023-02-11T11:50:57.980Z,30.86
2023-02-11T11:53:47.627Z,30.91
2023-02-11T11:56:28.419Z,30.88
2023-02-11T11:59:02.746Z,30.86
2023-02-11T12:01:40.442Z,30.69
2023-02-11T12:04:28.098Z,30.79
2023-02-11T12:07:19.672Z,30.86
2023-02-11T12:10:15.769Z,30.95
2023-02-11T12:13:04.280Z,30.94
2023-02-11T12:16:17.187Z,30.95
2023-02-11T12:18:55.373Z,30.93
2023-02-11T12:21:38.248Z,30.90
2023-02-11T12:24:30.547Z,30.94
2023-02-11T12:27:04.556Z,30.91
2023-02-11T12:29:42.167Z,30.91
2023-02-11T12:32:18.873Z,30.92
2023-02-11T12:34:49.998Z,30.92
2023-02-11T12:37:39.319Z,30.95
2023-02-11T12:40:29.623Z,30.97
2023-02-11T12:43:24.531Z,30.96
2023-02-11T12:46:24.910Z,30.97
2023-02-11T12:49:11.578Z,30.95
2023-02-11T12:51:56.962Z,30.96
2023-02-11T12:54:47.317Z,30.97
2023-02-11T12:57:31.100Z,30.97
2023-02-11T13:00:09.521Z,30.93
2023-02-11T13:03:01.769Z,30.96
2023-02-11T13:05:47.857Z,30.94
2023-02-11T13:08:33.030Z,30.90
2023-02-11T13:11:08.885Z,30.89
2023-02-11T13:13:47.313Z,30.88
2023-02-11T13:16:38.790Z,30.94
2023-02-11T13:19:15.278Z,30.90
2023-02-11T13:22:10.637Z,30.92
2023-02-11T13:25:04.553Z,30.90
2023-02-11T13:27:37.789Z,30.87
2023-02-11T13:30:28.743Z,30.90
2023-02-11T13:33:01.984Z,30.89
2023-02-11T13:35:37.751Z,30.87
2023-02-11T13:38:29.150Z,30.88
2023-02-11T13:41:54.876Z,30.79
2023-02-11T13:44:28.206Z,30.71
2023-02-11T13:47:08.583Z,30.77
2023-02-11T13:49:44.389Z,30.75
2023-02-11T13:52:46.005Z,30.76
2023-02-11T13:55:27.947Z,30.75
2023-02-11T13:58:10.117Z,30.77
2023-02-11T14:00:41.297Z,30.72
2023-02-11T14:03:30.605Z,30.75
2023-02-11T14:06:27.783Z,30.75
2023-02-11T14:09:10.894Z,30.73
2023-02-11T14:11:54.750Z,30.72
2023-02-11T14:14:37.157Z,30.73
2023-02-11T14:17:11.545Z,30.68
2023-02-11T14:19:47.335Z,30.70
2023-02-11T14:22:20.052Z,30.71
2023-02-11T14:24:52.112Z,30.66
2023-02-11T14:27:30.341Z,30.66
2023-02-11T14:30:16.018Z,30.66
2023-02-11T14:33:02.193Z,30.43
2023-02-11T14:36:09.815Z,30.46
2023-02-11T14:39:06.418Z,30.44
2023-02-11T14:41:47.468Z,30.41
2023-02-11T14:44:29.930Z,30.32
2023-02-11T14:47:01.240Z,30.39
2023-02-11T14:49:38.323Z,30.43
2023-02-11T14:52:23.717Z,30.47
2023-02-11T14:55:04.196Z,30.45
2023-02-11T14:57:35.143Z,30.46
2023-02-11T15:00:18.728Z,30.44
2023-02-11T15:02:49.728Z,30.43
2023-02-11T15:05:23.442Z,30.44
2023-02-11T15:07:58.110Z,30.38
2023-02-11T15:10:36.596Z,30.38
2023-02-11T15:13:07.535Z,30.38
2023-02-11T15:15:41.890Z,30.36
2023-02-11T15:18:23.931Z,30.35
2023-02-11T15:20:54.628Z,30.36
2023-02-11T15:23:27.843Z,30.35
2023-02-11T15:25:58.874Z,30.32
2023-02-11T15:28:32.022Z,30.30
2023-02-11T15:31:06.243Z,30.31
2023-02-11T15:33:36.843Z,30.30
2023-02-11T15:36:07.857Z,30.27
2023-02-11T15:38:39.401Z,30.29
2023-02-11T15:41:35.082Z,30.30
2023-02-11T15:44:08.972Z,30.26
2023-02-11T15:46:40.867Z,30.25
2023-02-11T15:49:20.101Z,30.21
2023-02-11T15:51:53.478Z,30.23
2023-02-11T15:54:27.651Z,30.20
2023-02-11T15:57:05.204Z,30.18
2023-02-11T15:59:39.292Z,30.17
2023-02-11T16:02:38.360Z,30.18
2023-02-11T16:05:10.835Z,30.13
2023-02-11T16:07:48.910Z,30.11
2023-02-11T16:10:35.418Z,30.11
2023-02-11T16:13:08.838Z,30.08
2023-02-11T16:15:47.756Z,30.07
2023-02-11T16:18:38.773Z,30.08
2023-02-11T16:21:18.206Z,30.04
2023-02-11T16:23:57.192Z,30.04
2023-02-11T16:26:52.176Z,30.04
2023-02-11T16:29:30.974Z,29.99
2023-02-11T16:32:27.156Z,29.98
2023-02-11T16:35:00.361Z,29.94
2023-02-11T16:37:33.409Z,29.92
2023-02-11T16:40:04.356Z,29.94
2023-02-11T16:42:35.035Z,29.80
2023-02-11T16:45:06.584Z,29.77
2023-02-11T16:47:41.832Z,29.69
2023-02-11T16:50:17.035Z,29.66
2023-02-11T16:52:48.150Z,29.62
2023-02-11T16:55:22.025Z,29.62
2023-02-11T16:57:53.627Z,29.59
2023-02-11T17:00:24.595Z,29.54
2023-02-11T17:02:55.333Z,29.54
2023-02-11T17:05:26.857Z,29.51
2023-02-11T17:07:57.677Z,29.48
2023-02-11T17:10:28.081Z,29.46
2023-02-11T17:12:59.240Z,29.46
2023-02-11T17:15:29.645Z,29.43
2023-02-11T17:18:00.830Z,29.39
2023-02-11T17:20:31.565Z,29.38
2023-02-11T17:23:02.215Z,29.33
2023-02-11T17:25:32.569Z,29.32
2023-02-11T17:28:02.902Z,29.30
2023-02-11T17:30:36.424Z,29.32
2023-02-11T17:33:07.016Z,29.31
2023-02-11T17:35:41.479Z,29.28
2023-02-11T17:38:11.822Z,29.25
2023-02-11T17:40:42.485Z,29.23
2023-02-11T17:43:13.715Z,29.19
2023-02-11T17:45:44.660Z,29.18
2023-02-11T17:48:15.306Z,29.16
2023-02-11T17:50:45.734Z,29.15
2023-02-11T17:53:16.308Z,29.15
2023-02-11T17:55:47.064Z,29.15
2023-02-11T17:58:17.735Z,29.12
2023-02-11T18:00:54.072Z,29.12
2023-02-11T18:03:24.664Z,29.12
2023-02-11T18:06:07.778Z,29.11
2023-02-11T18:08:38.154Z,29.08
2023-02-11T18:11:11.829Z,29.07
2023-02-11T18:13:43.941Z,29.07
2023-02-11T18:16:17.352Z,29.05
2023-02-11T18:18:47.684Z,29.05
2023-02-11T18:21:22.612Z,29.03
2023-02-11T18:23:53.765Z,29.02
2023-02-11T18:26:27.252Z,28.99
2023-02-11T18:29:02.726Z,28.98
2023-02-11T18:31:33.291Z,28.97
2023-02-11T18:34:08.359Z,28.95
2023-02-11T18:36:39.864Z,28.95
2023-02-11T18:39:11.044Z,28.94
2023-02-11T18:41:43.225Z,28.97
2023-02-11T18:44:15.209Z,28.90
2023-02-11T18:46:45.979Z,28.91
2023-02-11T18:49:16.638Z,28.89
2023-02-11T18:51:47.434Z,28.86
2023-02-11T18:54:17.828Z,28.86
2023-02-11T18:56:48.176Z,28.86
2023-02-11T18:59:18.488Z,28.82
2023-02-11T19:01:48.983Z,28.83
2023-02-11T19:04:20.837Z,28.82
2023-02-11T19:06:51.932Z,28.80
2023-02-11T19:09:22.731Z,28.77
2023-02-11T19:11:54.933Z,28.78
2023-02-11T19:14:34.332Z,28.78
2023-02-11T19:17:09.936Z,28.77
2023-02-11T19:19:43.995Z,28.77
2023-02-11T19:22:14.779Z,28.74
2023-02-11T19:24:46.563Z,28.73
2023-02-11T19:27:17.596Z,28.73
2023-02-11T19:29:48.169Z,28.71
2023-02-11T19:32:21.879Z,28.70
2023-02-11T19:35:03.090Z,28.67
2023-02-11T19:37:33.983Z,28.63
2023-02-11T19:40:05.001Z,28.66
2023-02-11T19:42:35.815Z,28.64
2023-02-11T19:45:08.329Z,28.62
2023-02-11T19:47:38.910Z,28.59
2023-02-11T19:50:10.204Z,28.59
2023-02-11T19:52:41.762Z,28.60
2023-02-11T19:55:12.458Z,28.57
2023-02-11T19:57:43.570Z,28.55
2023-02-11T20:00:17.571Z,28.57
2023-02-11T20:02:48.224Z,28.53
2023-02-11T20:05:19.154Z,28.55
2023-02-11T20:07:49.467Z,28.54
2023-02-11T20:10:20.222Z,28.54
2023-02-11T20:12:51.175Z,28.53
2023-02-11T20:15:21.539Z,28.52
2023-02-11T20:17:51.908Z,28.52
2023-02-11T20:20:22.547Z,28.49
2023-02-11T20:22:53.356Z,28.50
2023-02-11T20:25:23.988Z,28.52
2023-02-11T20:27:54.556Z,28.50
2023-02-11T20:30:25.533Z,28.47
2023-02-11T20:32:58.059Z,28.47
2023-02-11T20:35:37.392Z,28.47
2023-02-11T20:38:10.493Z,28.44
2023-02-11T20:40:41.150Z,28.45
2023-02-11T20:43:14.674Z,28.40
2023-02-11T20:45:50.713Z,28.39
2023-02-11T20:48:21.363Z,28.37
2023-02-11T20:50:52.102Z,28.40
2023-02-11T20:53:22.500Z,28.40
2023-02-11T20:55:53.369Z,28.38
2023-02-11T20:58:23.950Z,28.36
2023-02-11T21:00:54.749Z,28.36
2023-02-11T21:03:25.558Z,28.36
2023-02-11T21:06:00.087Z,28.39
2023-02-11T21:08:30.780Z,28.39
2023-02-11T21:11:01.340Z,28.39
2023-02-11T21:13:31.732Z,28.36
2023-02-11T21:16:03.353Z,28.37
2023-02-11T21:18:34.137Z,28.40
2023-02-11T21:21:07.010Z,28.39
2023-02-11T21:23:39.072Z,28.36
2023-02-11T21:26:10.050Z,28.36
2023-02-11T21:28:41.338Z,28.33
2023-02-11T21:31:21.778Z,28.35
2023-02-11T21:33:53.985Z,28.32
2023-02-11T21:36:25.244Z,28.32
2023-02-11T21:38:55.796Z,28.29
2023-02-11T21:41:27.819Z,28.32
2023-02-11T21:43:58.641Z,28.29
2023-02-11T21:46:29.325Z,28.29
2023-02-11T21:49:01.269Z,28.28
2023-02-11T21:51:32.148Z,28.29
2023-02-11T21:54:03.947Z,28.29
2023-02-11T21:56:36.455Z,28.33
2023-02-11T21:59:07.118Z,28.30
2023-02-11T22:01:38.023Z,28.29
2023-02-11T22:04:08.689Z,28.27
2023-02-11T22:06:39.812Z,28.26
2023-02-11T22:09:12.162Z,28.23
2023-02-11T22:11:43.203Z,28.23
2023-02-11T22:14:13.548Z,28.23
2023-02-11T22:16:47.025Z,28.23
2023-02-11T22:19:17.486Z,28.22
2023-02-11T22:21:48.346Z,28.21
2023-02-11T22:24:18.740Z,28.20
2023-02-11T22:26:51.861Z,28.21
2023-02-11T22:29:31.384Z,28.21
2023-02-11T22:32:02.232Z,28.18
2023-02-11T22:34:33.489Z,28.13
2023-02-11T22:37:06.195Z,28.16
2023-02-11T22:39:36.598Z,28.15
2023-02-11T22:42:10.339Z,28.14
2023-02-11T22:44:40.587Z,28.13
2023-02-11T22:47:11.581Z,28.12
2023-02-11T22:49:42.667Z,28.11
2023-02-11T22:52:13.297Z,28.15
2023-02-11T22:54:44.090Z,28.14
2023-02-11T22:57:15.018Z,28.14
2023-02-11T22:59:45.655Z,28.15
2023-02-11T23:02:17.583Z,28.19
2023-02-11T23:04:49.924Z,28.17
2023-02-11T23:07:20.542Z,28.18
2023-02-11T23:09:51.177Z,28.20
2023-02-11T23:12:21.543Z,28.21
2023-02-11T23:14:52.877Z,28.22
2023-02-11T23:17:25.388Z,28.22
2023-02-11T23:19:55.945Z,28.26
2023-02-11T23:22:27.020Z,28.24
2023-02-11T23:24:57.687Z,28.23
2023-02-11T23:27:28.402Z,28.25
2023-02-11T23:29:59.701Z,28.28
2023-02-11T23:32:30.937Z,28.29
2023-02-11T23:35:01.965Z,28.30
2023-02-11T23:37:32.258Z,28.28
2023-02-11T23:40:03.265Z,28.32
2023-02-11T23:42:36.256Z,28.30
2023-02-11T23:45:07.744Z,28.32
2023-02-11T23:47:40.272Z,28.38
2023-02-11T23:50:12.055Z,28.39
2023-02-11T23:52:42.953Z,28.40
2023-02-11T23:55:16.589Z,28.43
2023-02-11T23:57:47.225Z,28.45
